Time;durP1;ratioP1;P1;durP2;ratioP2;P2;SDS_P1;SDS_P2;PMS_P1;PMS_P2;Temp;Humidity;BMP_temperature;BMP_pressure;BME280_temperature;BME280_humidity;BME280_pressure;Samples;Min_cycle;Max_cycle;Signal;HPM_P1;HPM_P2
2022/07/08 00:02:01;;;;;;;2.00;1.00;;;;;;;20.28;61.47;100428.26;1637684;86;21463;-66
2022/07/08 00:04:31;;;;;;;1.60;1.12;;;;;;;20.26;61.49;100449.39;1640567;87;21100;-65
2022/07/08 00:07:01;;;;;;;1.62;1.15;;;;;;;20.25;61.51;100456.06;1640081;87;21041;-66
2022/07/08 00:09:32;;;;;;;2.47;1.02;;;;;;;20.24;61.62;100450.75;1640956;87;21512;-67
2022/07/08 00:12:02;;;;;;;2.47;1.00;;;;;;;20.20;61.87;100442.63;1637887;87;21018;-66
2022/07/08 00:14:33;;;;;;;1.45;1.00;;;;;;;20.18;61.98;100455.97;1637859;87;21077;-65
2022/07/08 00:17:04;;;;;;;1.42;1.15;;;;;;;20.18;62.05;100455.97;1639068;87;21078;-65
2022/07/08 00:19:35;;;;;;;1.65;1.30;;;;;;;20.16;62.09;100456.78;1639005;87;21011;-65
2022/07/08 00:22:04;;;;;;;2.60;1.17;;;;;;;20.17;62.18;100461.23;1639107;86;21030;-65
2022/07/08 00:24:35;;;;;;;2.50;1.42;;;;;;;20.16;62.25;100468.75;1639905;86;21063;-65
2022/07/08 00:27:04;;;;;;;2.47;1.15;;;;;;;20.17;62.38;100484.89;1627373;88;21095;-65
2022/07/08 00:29:35;;;;;;;1.52;1.20;;;;;;;20.16;62.48;100491.55;1629089;88;21553;-65
2022/07/08 00:32:06;;;;;;;3.22;1.45;;;;;;;20.12;62.51;100497.31;1626999;87;21477;-66
2022/07/08 00:34:36;;;;;;;1.92;1.32;;;;;;;20.10;62.51;100493.95;1627773;87;21066;-65
2022/07/08 00:37:06;;;;;;;1.30;1.20;;;;;;;20.10;62.71;100493.95;1628691;87;21007;-64
2022/07/08 00:39:37;;;;;;;1.72;1.10;;;;;;;20.11;62.48;100495.08;1626908;88;21123;-65
2022/07/08 00:42:07;;;;;;;1.65;1.20;;;;;;;20.17;62.27;100491.84;1629947;88;21015;-66
2022/07/08 00:44:37;;;;;;;1.30;1.17;;;;;;;20.21;62.10;100490.23;1627315;88;21057;-66
2022/07/08 00:47:06;;;;;;;2.47;1.20;;;;;;;20.25;61.87;100487.22;1627689;87;21547;-67
2022/07/08 00:49:36;;;;;;;1.10;1.00;;;;;;;20.25;61.71;100498.34;1627366;88;21116;-65
2022/07/08 00:52:07;;;;;;;1.95;1.20;;;;;;;20.26;61.64;100489.73;1628763;87;21099;-67
2022/07/08 00:54:37;;;;;;;1.20;1.10;;;;;;;20.27;61.56;100500.32;1597018;89;21079;-65
2022/07/08 00:57:08;;;;;;;1.17;1.05;;;;;;;20.26;61.53;100493.91;1628195;87;21072;-66
2022/07/08 00:59:38;;;;;;;2.67;1.00;;;;;;;20.28;61.30;100495.05;1627076;88;21080;-66
2022/07/08 01:02:09;;;;;;;1.20;1.00;;;;;;;20.28;61.22;100495.05;1579996;90;21079;-66
2022/07/08 01:04:38;;;;;;;1.85;1.20;;;;;;;20.30;61.14;100490.06;1626604;88;21085;-66
2022/07/08 01:07:09;;;;;;;1.20;0.93;;;;;;;20.30;60.87;100492.84;1627349;88;21531;-66
2022/07/08 01:09:39;;;;;;;3.85;1.05;;;;;;;20.29;60.82;100494.49;1626635;88;21132;-67
2022/07/08 01:12:10;;;;;;;1.85;1.00;;;;;;;20.28;60.99;100488.64;1627323;88;21523;-65
2022/07/08 01:14:41;;;;;;;1.20;1.10;;;;;;;20.29;60.62;100489.77;1627626;87;21064;-66
2022/07/08 01:17:10;;;;;;;1.20;1.10;;;;;;;20.28;60.58;100488.64;1628520;88;21101;-66
2022/07/08 01:19:40;;;;;;;1.32;1.22;;;;;;;20.30;60.49;100484.50;1627657;88;21075;-66
2022/07/08 01:22:10;;;;;;;1.50;1.10;;;;;;;20.32;60.37;100484.23;1629475;88;21064;-69
2022/07/08 01:24:40;;;;;;;1.55;1.07;;;;;;;20.35;60.30;100492.91;1629344;87;21015;-66
2022/07/08 01:27:09;;;;;;;1.20;1.10;;;;;;;20.34;60.33;100488.44;1621983;87;21006;-64
2022/07/08 01:29:39;;;;;;;2.33;1.20;;;;;;;20.35;60.29;100484.55;1613373;87;21139;-67
2022/07/08 01:32:11;;;;;;;1.67;1.17;;;;;;;20.36;60.27;100489.02;1615632;87;21103;-65
2022/07/08 01:34:42;;;;;;;1.52;1.10;;;;;;;20.38;60.20;100487.37;1639056;87;21071;-66
2022/07/08 01:37:11;;;;;;;1.07;1.00;;;;;;;20.37;60.20;100480.96;1610878;89;21079;-65
2022/07/08 01:39:42;;;;;;;1.70;1.20;;;;;;;20.38;60.25;100490.99;1619484;88;21067;-67
2022/07/08 01:42:12;;;;;;;1.27;1.00;;;;;;;20.38;60.14;100493.78;1644307;86;21023;-65
2022/07/08 01:44:42;;;;;;;1.60;1.10;;;;;;;20.39;60.12;100492.70;1611746;89;21067;-66
2022/07/08 01:47:12;;;;;;;1.50;1.00;;;;;;;20.39;60.06;100496.88;1620266;88;21075;-67
2022/07/08 01:49:41;;;;;;;1.30;1.10;;;;;;;20.40;60.03;100491.61;1643775;86;21031;-67
2022/07/08 01:52:12;;;;;;;1.45;1.22;;;;;;;20.40;60.17;100499.95;1588023;89;21056;-65
2022/07/08 01:54:41;;;;;;;1.50;1.12;;;;;;;20.41;60.21;100496.62;1620320;88;21142;-66
2022/07/08 01:57:14;;;;;;;1.10;1.00;;;;;;;20.44;60.15;100501.67;1632008;86;21015;-65
2022/07/08 01:59:45;;;;;;;2.65;1.22;;;;;;;20.44;60.15;100491.37;1611845;88;21155;-66
2022/07/08 02:02:17;;;;;;;1.25;1.00;;;;;;;20.45;60.19;100498.63;1606214;88;21052;-67
2022/07/08 02:04:47;;;;;;;2.05;1.32;;;;;;;20.46;60.21;100496.68;1638165;86;21185;-66
2022/07/08 02:07:17;;;;;;;1.50;1.32;;;;;;;20.43;60.50;100491.08;1590707;89;21027;-65
2022/07/08 02:09:46;;;;;;;1.95;1.12;;;;;;;20.43;60.79;100491.08;1602879;88;21087;-66
2022/07/08 02:12:19;;;;;;;1.55;1.30;;;;;;;20.45;60.95;100494.45;1610634;89;21519;-66
2022/07/08 02:15:02;;;;;;;1.42;1.30;;;;;;;20.43;61.14;100499.44;1631090;88;21102;-64
2022/07/08 02:17:40;;;;;;;1.72;1.17;;;;;;;20.41;61.29;100496.62;1643634;86;21063;-65
2022/07/08 02:20:14;;;;;;;1.70;1.37;;;;;;;20.39;61.34;100488.53;1611638;89;21110;-67
2022/07/08 02:22:44;;;;;;;1.95;1.47;;;;;;;20.38;61.47;100490.99;1622819;88;21543;-65
2022/07/08 02:25:16;;;;;;;1.65;1.20;;;;;;;20.36;61.56;100488.18;1639707;86;21572;-65
2022/07/08 02:27:46;;;;;;;1.60;1.20;;;;;;;20.35;61.73;100490.12;1632101;88;21365;-66
2022/07/08 02:30:16;;;;;;;1.70;1.25;;;;;;;20.33;61.84;100489.54;1609161;88;21488;-66
2022/07/08 02:32:46;;;;;;;1.57;1.40;;;;;;;20.31;61.92;100483.95;1632220;86;21089;-66
2022/07/08 02:35:16;;;;;;;2.27;1.40;;;;;;;20.29;62.00;100481.42;1632771;88;21048;-66
2022/07/08 02:37:47;;;;;;;1.22;1.12;;;;;;;20.30;62.07;100486.44;1624743;88;21566;-65
2022/07/08 02:40:17;;;;;;;1.32;1.22;;;;;;;20.28;62.10;100486.70;1658689;86;21078;-66
2022/07/08 02:42:46;;;;;;;3.62;1.30;;;;;;;20.27;62.21;100493.36;1615817;88;21058;-66
2022/07/08 02:45:17;;;;;;;2.45;1.32;;;;;;;20.25;62.21;100501.13;1632606;87;21043;-67
2022/07/08 02:47:47;;;;;;;4.87;1.60;;;;;;;20.20;62.30;100501.06;1632486;88;21049;-65
2022/07/08 02:50:17;;;;;;;1.65;1.30;;;;;;;20.19;62.31;100500.77;1621444;88;21359;-69
2022/07/08 02:52:47;;;;;;;1.30;1.20;;;;;;;20.17;62.26;100492.69;1644959;86;21071;-65
2022/07/08 02:55:17;;;;;;;1.47;1.20;;;;;;;20.16;62.41;100490.16;1632410;88;21096;-67
2022/07/08 03:00:29;;;;;;;1.25;1.05;;;;;;;20.20;62.41;100489.94;1618998;88;21043;-67
2022/07/08 03:02:58;;;;;;;2.22;1.20;;;;;;;20.25;62.41;100496.95;1653162;86;21019;-66
2022/07/08 03:05:28;;;;;;;1.55;1.25;;;;;;;20.28;62.51;100499.77;1689069;85;21443;-65
2022/07/08 03:07:59;;;;;;;3.10;1.50;;;;;;;20.24;62.59;100499.45;1689610;85;21090;-66
2022/07/08 03:10:30;;;;;;;2.08;1.27;;;;;;;20.22;62.75;100501.64;1690511;85;21029;-65
2022/07/08 03:12:59;;;;;;;2.60;1.25;;;;;;;20.22;62.55;100500.25;1690472;85;21051;-66
2022/07/08 03:15:28;;;;;;;4.33;1.40;;;;;;;20.19;62.44;100503.00;1690051;85;21035;-67
2022/07/08 03:17:57;;;;;;;2.05;1.40;;;;;;;20.18;62.61;100505.50;1688246;85;21043;-66
2022/07/08 03:20:27;;;;;;;2.37;1.32;;;;;;;20.14;62.84;100506.24;1687451;85;21071;-64
2022/07/08 03:22:56;;;;;;;1.50;1.30;;;;;;;20.11;63.03;100512.32;1689597;85;21007;-66
2022/07/08 03:25:27;;;;;;;1.87;1.50;;;;;;;20.07;63.30;100506.43;1688294;85;21086;-66
2022/07/08 03:27:56;;;;;;;2.80;1.35;;;;;;;20.09;63.50;100515.36;1689357;83;21051;-66
2022/07/08 03:30:26;;;;;;;3.30;1.50;;;;;;;20.10;63.68;100520.38;1689545;85;21027;-68
2022/07/08 03:32:56;;;;;;;4.33;1.40;;;;;;;20.10;63.91;100524.00;1688327;85;21051;-64
2022/07/08 03:35:26;;;;;;;2.42;1.42;;;;;;;20.07;64.00;100516.72;1688273;85;21070;-65
2022/07/08 03:37:58;;;;;;;3.05;1.70;;;;;;;20.06;64.01;100526.16;1686588;85;21023;-65
2022/07/08 03:43:19;;;;;;;1.80;1.27;;;;;;;20.00;64.06;100520.23;1684184;85;21525;-64
2022/07/08 03:45:49;;;;;;;1.57;1.32;;;;;;;19.97;64.13;100523.53;1690524;83;21059;-65
2022/07/08 03:48:19;;;;;;;3.27;1.47;;;;;;;19.97;63.93;100522.98;1688295;85;21060;-66
2022/07/08 03:50:50;;;;;;;1.98;1.45;;;;;;;19.98;63.82;100519.65;1688448;85;21062;-66
2022/07/08 03:53:20;;;;;;;2.35;1.30;;;;;;;20.02;63.66;100518.04;1690570;85;21027;-66
2022/07/08 03:55:52;;;;;;;4.42;1.40;;;;;;;20.03;63.64;100514.16;1688757;85;21465;-66
2022/07/08 03:58:23;;;;;;;2.15;1.40;;;;;;;20.06;63.70;100513.64;1667446;85;21081;-65
2022/07/08 04:00:53;;;;;;;2.00;1.35;;;;;;;20.08;63.73;100508.66;1691290;84;20995;-67
2022/07/08 04:03:24;;;;;;;1.82;1.35;;;;;;;20.09;63.63;100516.75;1691651;85;21577;-67
2022/07/08 04:05:54;;;;;;;2.25;1.50;;;;;;;20.13;63.52;100517.92;1690250;85;21106;-66
2022/07/08 04:08:24;;;;;;;2.37;1.60;;;;;;;20.17;63.46;100519.67;1690786;85;21060;-66
2022/07/08 04:10:54;;;;;;;2.17;1.55;;;;;;;20.20;63.46;100523.33;1690669;84;21051;-65
2022/07/08 04:13:27;;;;;;;5.10;1.50;;;;;;;20.23;63.20;100515.84;1691191;85;21059;-65
2022/07/08 04:15:56;;;;;;;5.72;1.60;;;;;;;20.25;63.11;100522.00;1691442;85;21047;-66
2022/07/08 04:18:27;;;;;;;4.42;1.60;;;;;;;20.28;63.01;100519.25;1690705;85;21075;-66
2022/07/08 04:20:58;;;;;;;2.47;1.60;;;;;;;20.30;62.81;100512.33;1691010;84;21062;-65
2022/07/08 04:23:27;;;;;;;3.12;1.50;;;;;;;20.36;62.71;100517.41;1690086;85;21158;-66
2022/07/08 04:25:59;;;;;;;4.35;1.85;;;;;;;20.37;62.57;100510.19;1690376;85;21511;-65
2022/07/08 04:28:30;;;;;;;3.58;1.50;;;;;;;20.39;62.51;100512.70;1691110;85;21589;-66
2022/07/08 04:31:01;;;;;;;3.00;1.70;;;;;;;20.42;62.35;100508.89;1690496;85;21112;-67
2022/07/08 04:33:33;;;;;;;3.17;1.70;;;;;;;20.43;62.33;100518.08;1691011;85;21027;-65
2022/07/08 04:36:04;;;;;;;3.62;1.47;;;;;;;20.43;62.20;100523.64;1690541;85;21070;-66
2022/07/08 04:38:35;;;;;;;2.45;1.47;;;;;;;20.38;62.21;100527.17;1690357;85;21515;-65
2022/07/08 04:41:08;;;;;;;3.22;1.70;;;;;;;20.34;62.38;100525.17;1691001;85;21106;-66
2022/07/08 04:43:39;;;;;;;3.52;2.20;;;;;;;20.26;62.58;100532.88;1690655;85;21089;-67
2022/07/08 04:46:08;;;;;;;1.77;1.50;;;;;;;20.22;62.72;100530.31;1690509;85;21023;-66
2022/07/08 04:48:38;;;;;;;5.58;1.67;;;;;;;20.21;62.87;100527.79;1690539;85;21074;-65
2022/07/08 04:51:07;;;;;;;2.87;1.50;;;;;;;20.25;62.79;100533.97;1690261;85;21103;-66
2022/07/08 04:53:37;;;;;;;5.00;1.87;;;;;;;20.30;62.85;100538.76;1690208;85;21113;-66
2022/07/08 04:56:08;;;;;;;6.33;2.40;;;;;;;20.34;62.74;100539.09;1691078;85;21004;-66
2022/07/08 04:58:38;;;;;;;1.65;1.55;;;;;;;20.34;62.51;100535.75;1690618;85;21515;-68
2022/07/08 05:01:09;;;;;;;2.42;1.50;;;;;;;20.35;62.38;100536.59;1695604;84;21487;-66
2022/07/08 05:03:39;;;;;;;3.60;1.62;;;;;;;20.36;62.43;100536.33;1695329;84;21088;-66
2022/07/08 05:06:08;;;;;;;2.45;1.70;;;;;;;20.40;62.22;100533.35;1697558;84;21018;-65
2022/07/08 05:08:38;;;;;;;4.45;1.70;;;;;;;20.44;62.34;100537.30;1696091;84;21030;-65
2022/07/08 05:11:09;;;;;;;2.40;1.50;;;;;;;20.45;62.52;100536.75;1694553;84;21046;-66
2022/07/08 05:13:41;;;;;;;2.22;1.50;;;;;;;20.47;62.77;100547.92;1693571;84;21106;-66
2022/07/08 05:16:12;;;;;;;3.08;1.80;;;;;;;20.46;62.82;100544.84;1693621;84;20990;-65
2022/07/08 05:18:43;;;;;;;1.87;1.70;;;;;;;20.47;62.87;100547.92;1694537;84;21054;-66
2022/07/08 05:21:13;;;;;;;2.40;1.47;;;;;;;20.50;62.52;100550.18;1693024;84;21076;-65
2022/07/08 05:23:44;;;;;;;5.90;1.82;;;;;;;20.52;62.45;100545.20;1694171;84;21078;-66
2022/07/08 05:26:13;;;;;;;3.85;1.72;;;;;;;20.55;62.39;100536.88;1696646;84;21030;-64
2022/07/08 05:28:43;;;;;;;4.53;1.52;;;;;;;20.55;62.11;100541.89;1692812;84;21629;-65
2022/07/08 05:31:13;;;;;;;4.10;2.08;;;;;;;20.59;62.01;100540.82;1693766;84;21077;-65
2022/07/08 05:33:43;;;;;;;10.65;2.35;;;;;;;20.63;61.93;100531.39;1697400;84;21070;-65
2022/07/08 05:36:14;;;;;;;4.72;1.90;;;;;;;20.69;61.89;100540.09;1656841;86;21714;-65
2022/07/08 05:38:44;;;;;;;2.87;2.00;;;;;;;20.73;61.64;100535.69;1697462;84;21057;-66
2022/07/08 05:41:15;;;;;;;5.37;2.58;;;;;;;20.77;61.20;100535.45;1656970;86;21078;-65
2022/07/08 05:43:45;;;;;;;2.10;1.60;;;;;;;20.79;60.75;100545.78;1684656;84;21337;-64
2022/07/08 05:46:14;;;;;;;2.72;1.52;;;;;;;20.76;60.38;100540.73;1695768;84;21027;-66
2022/07/08 05:48:47;;;;;;;3.22;1.50;;;;;;;20.73;60.44;100543.48;1649720;86;21499;-66
2022/07/08 05:51:16;;;;;;;7.72;1.70;;;;;;;20.71;60.08;100558.22;1696926;84;21446;-65
2022/07/08 05:53:48;;;;;;;3.05;1.90;;;;;;;20.69;60.08;100564.61;1685600;84;21074;-67
2022/07/08 05:56:19;;;;;;;2.98;1.60;;;;;;;20.67;60.05;100559.00;1693803;84;21078;-66
2022/07/08 05:58:48;;;;;;;4.70;1.90;;;;;;;20.65;60.07;100570.41;1650181;86;21042;-67
2022/07/08 06:01:19;;;;;;;2.92;1.70;;;;;;;20.63;59.97;100573.16;1724589;82;21035;-67
2022/07/08 06:03:48;;;;;;;2.90;1.70;;;;;;;20.57;60.15;100567.53;1670221;86;21521;-66
2022/07/08 06:06:18;;;;;;;3.27;1.52;;;;;;;20.55;59.87;100567.50;1699957;84;21026;-66
2022/07/08 06:08:48;;;;;;;1.70;1.40;;;;;;;20.50;59.95;100561.87;1699865;84;21081;-66
2022/07/08 06:11:19;;;;;;;3.47;1.60;;;;;;;20.45;60.00;100555.69;1673917;86;21081;-66
2022/07/08 06:13:49;;;;;;;2.80;1.32;;;;;;;20.42;60.87;100568.73;1660488;86;21121;-66
2022/07/08 06:16:20;;;;;;;3.45;1.40;;;;;;;20.40;62.25;100570.09;1671668;85;21050;-69
2022/07/08 06:18:51;;;;;;;3.08;1.70;;;;;;;20.36;63.82;100569.73;1671362;85;21797;-68
2022/07/08 06:21:21;;;;;;;2.60;1.82;;;;;;;20.33;64.73;100573.03;1700820;83;21074;-68
2022/07/08 06:23:51;;;;;;;2.52;1.50;;;;;;;20.26;65.28;100573.22;1691603;84;21042;-68
2022/07/08 06:26:20;;;;;;;2.08;1.67;;;;;;;20.20;65.41;100571.47;1679228;85;21042;-67
2022/07/08 06:28:50;;;;;;;2.67;1.80;;;;;;;20.14;65.41;100571.63;1645666;86;21043;-71
2022/07/08 06:31:20;;;;;;;4.20;1.80;;;;;;;20.11;65.69;100567.41;1664286;86;21051;-69
2022/07/08 06:33:56;;;;;;;3.52;1.80;;;;;;;20.06;66.15;100556.76;1694050;84;21379;-69
2022/07/08 06:36:24;;;;;;;3.62;1.90;;;;;;;20.02;66.67;100556.44;1698393;83;21453;-70
2022/07/08 06:38:53;;;;;;;6.12;2.17;;;;;;;20.02;67.76;100548.09;1697140;84;21033;-68
2022/07/08 06:41:26;;;;;;;6.58;2.12;;;;;;;20.04;68.90;100537.55;1698851;84;21151;-68
2022/07/08 06:43:56;;;;;;;5.70;2.80;;;;;;;20.03;69.35;100521.11;1697108;84;21486;-67
2022/07/08 06:46:28;;;;;;;4.85;2.08;;;;;;;20.01;70.55;100500.51;1698718;84;21011;-67
2022/07/08 06:48:58;;;;;;;6.30;1.98;;;;;;;19.98;70.24;100485.73;1697837;84;21106;-69
2022/07/08 06:51:28;;;;;;;6.60;2.40;;;;;;;19.95;70.24;100470.39;1695989;84;21055;-66
2022/07/08 06:56:46;;;;;;;6.22;2.10;;;;;;;19.92;70.31;100451.44;1695292;84;21106;-67
2022/07/08 06:59:16;;;;;;;2.42;1.72;;;;;;;19.86;69.87;100456.64;1687854;84;21070;-66
2022/07/08 07:01:47;;;;;;;2.80;1.92;;;;;;;19.87;69.40;100465.28;1690327;85;21114;-68
2022/07/08 07:04:17;;;;;;;4.85;2.55;;;;;;;19.92;70.10;100476.47;1690472;84;21062;-66
2022/07/08 07:06:47;;;;;;;3.25;2.02;;;;;;;19.95;70.14;100484.85;1690440;85;21071;-67
2022/07/08 07:09:16;;;;;;;2.58;1.80;;;;;;;20.03;70.35;100498.86;1690171;84;21094;-67
2022/07/08 07:11:47;;;;;;;4.62;1.92;;;;;;;20.06;69.64;100506.14;1690962;85;21075;-66
2022/07/08 07:14:17;;;;;;;4.87;2.45;;;;;;;20.12;68.92;100502.33;1678244;84;21090;-70
2022/07/08 07:16:47;;;;;;;5.53;2.00;;;;;;;20.15;68.80;100487.05;1728915;83;21027;-66
2022/07/08 07:19:16;;;;;;;2.52;1.90;;;;;;;20.17;68.43;100456.52;1701849;83;21097;-66
2022/07/08 07:21:46;;;;;;;2.98;1.95;;;;;;;20.18;68.24;100432.31;1725203;83;21042;-65
2022/07/08 07:24:18;;;;;;;3.35;2.00;;;;;;;20.14;67.58;100419.45;1728328;83;21027;-65
2022/07/08 07:26:47;;;;;;;4.42;1.75;;;;;;;20.14;66.91;100435.30;1726000;82;21118;-65
2022/07/08 07:29:18;;;;;;;7.37;2.20;;;;;;;20.12;66.45;100468.94;1726436;82;21078;-64
2022/07/08 07:31:49;;;;;;;3.27;1.80;;;;;;;20.13;66.62;100494.82;1728418;82;21026;-65
2022/07/08 07:34:19;;;;;;;2.37;1.95;;;;;;;20.10;66.41;100500.90;1725697;83;20987;-65
2022/07/08 07:36:52;;;;;;;2.40;1.47;;;;;;;20.09;65.91;100507.56;1728023;82;21010;-67
2022/07/08 07:39:25;;;;;;;1.98;1.62;;;;;;;20.04;65.91;100504.72;1727439;82;21121;-67
2022/07/08 07:41:55;;;;;;;4.83;2.10;;;;;;;20.03;65.69;100501.09;1727456;83;21054;-66
2022/07/08 07:44:27;;;;;;;4.20;1.70;;;;;;;19.99;65.65;100502.70;1726594;83;21070;-68
2022/07/08 07:46:56;;;;;;;3.30;1.77;;;;;;;19.95;65.86;100506.55;1726869;82;21054;-67
2022/07/08 07:49:26;;;;;;;3.27;1.60;;;;;;;19.92;65.63;100501.50;1728401;82;21070;-66
2022/07/08 07:51:58;;;;;;;1.90;1.50;;;;;;;19.93;65.66;100506.52;1726267;83;21520;-66
2022/07/08 07:54:27;;;;;;;4.78;2.08;;;;;;;19.95;65.97;100495.97;1725583;82;21108;-68
2022/07/08 07:56:58;;;;;;;4.33;2.00;;;;;;;20.03;65.90;100507.20;1727441;82;21019;-66
2022/07/08 07:59:27;;;;;;;4.12;2.20;;;;;;;20.03;64.97;100498.86;1661918;85;21014;-64
2022/07/08 08:01:57;;;;;;;2.05;1.52;;;;;;;20.02;65.62;100502.19;1699793;84;21054;-66
2022/07/08 08:04:27;;;;;;;3.58;1.60;;;;;;;20.05;65.31;100506.40;1728266;83;21133;-64
2022/07/08 08:06:58;;;;;;;5.08;2.02;;;;;;;20.10;65.41;100498.96;1726808;82;21090;-62
2022/07/08 08:09:28;;;;;;;1.85;1.75;;;;;;;20.16;64.71;100506.30;1725836;83;21059;-63
2022/07/08 08:11:59;;;;;;;4.17;1.80;;;;;;;20.24;64.58;100517.53;1726646;83;21026;-62
2022/07/08 08:14:30;;;;;;;2.20;1.70;;;;;;;20.32;64.13;100519.86;1726467;83;21023;-61
2022/07/08 08:17:00;;;;;;;3.42;1.80;;;;;;;20.39;63.31;100510.80;1727960;83;21046;-62
2022/07/08 08:19:31;;;;;;;1.95;1.60;;;;;;;20.40;62.48;100502.73;1728585;82;21054;-61
2022/07/08 08:22:01;;;;;;;3.40;1.98;;;;;;;20.44;62.57;100510.02;1727235;82;21070;-63
2022/07/08 08:24:33;;;;;;;3.95;1.80;;;;;;;20.50;62.04;100504.25;1671595;85;21490;-61
2022/07/08 08:27:04;;;;;;;2.72;1.82;;;;;;;20.61;61.76;100499.64;1670874;86;21122;-62
2022/07/08 08:29:34;;;;;;;1.87;1.50;;;;;;;20.69;61.26;100498.33;1669342;86;21130;-62
2022/07/08 08:32:05;;;;;;;4.53;1.52;;;;;;;20.72;60.89;100499.20;1662494;86;21050;-60
2022/07/08 08:34:35;;;;;;;6.17;2.10;;;;;;;20.71;61.11;100505.31;1699642;84;21033;-62
2022/07/08 08:37:06;;;;;;;2.30;1.47;;;;;;;20.70;60.96;100507.81;1697051;84;21063;-63
2022/07/08 08:39:37;;;;;;;2.08;1.50;;;;;;;20.69;60.06;100504.73;1700932;84;21057;-62
2022/07/08 08:42:07;;;;;;;4.67;1.67;;;;;;;20.70;60.02;100503.63;1697526;84;21481;-62
2022/07/08 08:44:38;;;;;;;4.37;1.60;;;;;;;20.74;60.09;100506.73;1694872;83;21050;-62
2022/07/08 08:47:08;;;;;;;3.05;1.30;;;;;;;20.81;58.91;100503.22;1700282;84;21050;-62
2022/07/08 08:49:37;;;;;;;5.28;1.50;;;;;;;20.85;58.25;100496.86;1696252;84;21120;-62
2022/07/08 08:52:08;;;;;;;4.55;1.80;;;;;;;20.87;58.02;100502.17;1700269;84;20998;-62
2022/07/08 08:54:39;;;;;;;3.75;2.30;;;;;;;20.91;58.72;100502.48;1700408;84;21108;-62
2022/07/08 08:57:09;;;;;;;4.78;1.67;;;;;;;20.99;58.42;100502.00;1673455;84;21074;-63
2022/07/08 08:59:39;;;;;;;1.90;1.45;;;;;;;21.05;57.55;100493.43;1704359;83;21046;-64
2022/07/08 09:02:11;;;;;;;3.37;1.70;;;;;;;21.09;57.44;100493.73;1694899;83;21054;-63
2022/07/08 09:04:41;;;;;;;3.00;1.67;;;;;;;21.12;57.25;100491.27;1697094;84;21082;-63
2022/07/08 09:07:11;;;;;;;3.50;1.57;;;;;;;21.19;57.12;100493.28;1703140;84;20991;-62
2022/07/08 09:09:41;;;;;;;1.87;1.45;;;;;;;21.25;56.69;100496.14;1727819;82;21066;-64
2022/07/08 09:12:22;;;;;;;4.15;1.52;;;;;;;21.31;56.48;100488.11;1728233;82;21050;-62
2022/07/08 09:14:54;;;;;;;3.30;1.22;;;;;;;21.36;56.94;100500.13;1671125;86;21057;-62
2022/07/08 09:17:25;;;;;;;1.65;1.10;;;;;;;21.44;56.17;100491.83;1697076;84;21039;-64
2022/07/08 09:19:55;;;;;;;3.15;1.77;;;;;;;21.53;55.72;100488.86;1672671;85;21520;-69
2022/07/08 09:22:35;;;;;;;;;;;;;;;21.61;55.88;100493.94;1728644;82;21003;-67
2022/07/08 09:25:07;;;;;;;4.35;1.75;;;;;;;21.70;55.18;100490.93;1726645;83;20242;-67
2022/07/08 09:27:37;;;;;;;3.90;1.30;;;;;;;21.71;54.72;100492.61;1726554;82;21410;-66
2022/07/08 09:30:10;;;;;;;6.25;1.55;;;;;;;21.70;54.92;100486.75;1704389;82;21137;-66
2022/07/08 09:32:58;;;;;;;2.30;1.40;;;;;;;21.74;54.88;100492.07;1705906;83;21483;-66
2022/07/08 09:35:38;;;;;;;3.20;1.42;;;;;;;21.77;54.88;100479.53;1719056;82;21098;-67
2022/07/08 09:38:08;;;;;;;2.10;1.20;;;;;;;21.80;54.86;100484.02;1727428;83;21423;-64
2022/07/08 09:40:38;;;;;;;1.92;1.20;;;;;;;21.82;54.60;100476.22;1726572;82;21094;-64
2022/07/08 09:43:13;;;;;;;3.10;1.37;;;;;;;21.90;54.63;100474.03;1683913;85;21097;-66
2022/07/08 09:45:43;;;;;;;3.40;1.37;;;;;;;21.98;54.39;100469.33;1700834;84;21030;-68
2022/07/08 09:48:16;;;;;;;3.75;1.12;;;;;;;22.09;54.63;100479.45;1669694;86;21056;-69
2022/07/08 09:50:47;;;;;;;2.52;1.40;;;;;;;22.27;54.62;100479.56;1728814;82;21058;-65
2022/07/08 09:53:21;;;;;;;2.83;1.60;;;;;;;22.39;53.79;100471.23;1728846;82;21054;-67
2022/07/08 09:55:51;;;;;;;2.27;1.50;;;;;;;22.50;53.44;100468.47;1727703;83;21002;-68
2022/07/08 09:58:23;;;;;;;3.10;1.70;;;;;;;22.64;53.47;100466.27;1725285;83;21070;-70
2022/07/08 10:00:54;;;;;;;2.17;1.40;;;;;;;22.77;52.62;100476.95;1728520;82;21093;-66
2022/07/08 10:03:24;;;;;;;7.50;1.90;;;;;;;22.85;52.48;100476.98;1727643;83;21002;-67
2022/07/08 10:05:54;;;;;;;4.53;1.22;;;;;;;22.91;51.73;100489.85;1727726;82;21047;-68
2022/07/08 10:08:25;;;;;;;4.40;1.30;;;;;;;22.96;51.25;100489.02;1727402;83;21047;-70
2022/07/08 10:10:56;;;;;;;1.60;1.30;;;;;;;22.90;51.53;100482.59;1727618;83;21043;-69
2022/07/08 10:13:27;;;;;;;2.05;1.30;;;;;;;22.89;51.66;100475.31;1728516;83;21054;-70
2022/07/08 10:15:58;;;;;;;3.85;1.57;;;;;;;22.85;51.20;100475.59;1663417;86;21098;-69
2022/07/08 10:18:41;;;;;;;4.42;1.45;;;;;;;22.84;51.82;100473.91;1689003;85;21046;-69
2022/07/08 10:21:11;;;;;;;3.45;1.92;;;;;;;22.89;51.88;100472.52;1692661;85;21058;-68
2022/07/08 10:23:47;;;;;;;2.95;1.50;;;;;;;22.93;52.11;100476.44;1691488;85;21035;-66
2022/07/08 10:26:32;;;;;;;2.25;1.30;;;;;;;23.04;51.78;100471.14;1693563;85;21046;-69
2022/07/08 10:29:09;;;;;;;2.83;1.30;;;;;;;23.17;51.67;100467.51;1677291;85;21533;-68
2022/07/08 10:31:48;;;;;;;3.08;1.60;;;;;;;23.29;51.01;100471.70;1679028;84;21068;-65
2022/07/08 10:34:24;;;;;;;2.42;1.30;;;;;;;23.31;50.76;100468.06;1726687;83;21038;-67
2022/07/08 10:36:54;;;;;;;2.85;1.30;;;;;;;23.42;50.54;100464.73;1694490;84;21456;-68
2022/07/08 10:39:32;;;;;;;5.15;1.40;;;;;;;23.57;50.10;100468.09;1676367;85;21089;-74
2022/07/08 10:42:04;;;;;;;2.05;1.30;;;;;;;23.71;48.92;100480.38;1678469;85;21051;-70
2022/07/08 10:44:49;;;;;;;3.95;1.65;;;;;;;23.78;48.91;100475.33;1679125;84;21126;-69
2022/07/08 10:47:25;;;;;;;2.37;1.27;;;;;;;23.84;48.81;100471.95;1671158;86;21089;-70
2022/07/08 10:50:05;;;;;;;2.77;1.50;;;;;;;23.85;48.88;100468.03;1666271;85;21055;-71
2022/07/08 10:52:42;;;;;;;3.45;1.30;;;;;;;23.88;48.13;100468.86;1692616;83;21018;-68
2022/07/08 10:55:14;;;;;;;1.83;1.30;;;;;;;23.83;48.24;100473.08;1693171;85;21074;-70
2022/07/08 10:57:57;;;;;;;2.55;1.60;;;;;;;23.73;48.68;100464.70;1683230;84;21041;-68
2022/07/08 11:00:26;;;;;;;4.25;2.27;;;;;;;23.69;49.44;100472.27;1697765;83;21042;-68
2022/07/08 11:02:59;;;;;;;3.10;1.20;;;;;;;23.78;49.01;100463.30;1703394;84;21055;-70
2022/07/08 11:05:38;;;;;;;1.72;1.42;;;;;;;23.85;48.91;100475.03;1713449;84;21050;-72
2022/07/08 11:08:22;;;;;;;2.33;1.20;;;;;;;23.89;48.39;100477.54;1718222;83;21098;-67
2022/07/08 11:10:52;;;;;;;5.90;2.75;;;;;;;23.87;48.23;100474.19;1644100;87;21538;-69
2022/07/08 11:13:22;;;;;;;15.78;9.40;;;;;;;23.91;48.48;100471.09;1713616;83;21513;-71
2022/07/08 11:15:52;;;;;;;5.40;3.25;;;;;;;24.02;48.25;100465.73;1712653;84;21106;-68
2022/07/08 11:18:24;;;;;;;3.50;1.20;;;;;;;24.09;47.43;100466.30;1713490;83;21086;-68
2022/07/08 11:20:59;;;;;;;2.30;1.10;;;;;;;24.05;47.19;100452.57;1712575;84;21019;-70
2022/07/08 11:23:29;;;;;;;2.17;1.40;;;;;;;23.99;47.58;100463.51;1712449;84;21023;-70
2022/07/08 11:26:02;;;;;;;2.17;0.93;;;;;;;23.91;47.45;100474.73;1633287;87;21038;-70
2022/07/08 11:28:35;;;;;;;1.92;1.27;;;;;;;23.86;47.18;100466.91;1713690;84;21050;-71
2022/07/08 11:31:07;;;;;;;2.85;1.42;;;;;;;23.86;47.88;100457.11;1689977;84;21062;-67
2022/07/08 11:33:40;;;;;;;3.47;1.40;;;;;;;23.97;47.89;100462.95;1711585;83;21011;-68
2022/07/08 11:36:17;;;;;;;3.33;1.37;;;;;;;24.07;47.32;100460.16;1713335;84;21043;-66
2022/07/08 11:38:50;;;;;;;5.45;1.50;;;;;;;24.10;46.90;100462.38;1714246;83;21027;-69
2022/07/08 11:41:20;;;;;;;2.30;1.50;;;;;;;24.06;46.45;100451.48;1712852;84;21066;-69
2022/07/08 11:43:51;;;;;;;3.92;2.15;;;;;;;24.01;47.05;100454.27;1712761;84;20995;-69
2022/07/08 11:46:22;;;;;;;1.82;1.50;;;;;;;24.03;47.17;100454.26;1712824;84;21082;-69
2022/07/08 11:48:53;;;;;;;7.83;2.92;;;;;;;24.07;46.97;100453.16;1644234;86;21112;-69
2022/07/08 11:51:22;;;;;;;1.85;1.50;;;;;;;24.10;46.76;100455.94;1679469;84;21091;-67